Aviation Digital Data Service (ADDS)

Output produced by METARs form (0817 UTC 01 November 2014)
found at http://aviationweather.gov/adds/metars/
 
KORD 010537Z 0106/0212 36012G20KT P6SM -SHSN SCT020 OVC040 
     FM011400 01012G18KT P6SM BKN025 
     FM011700 02011KT P6SM BKN025 
     FM020000 VRB03KT P6SM FEW025 SCT200